createdAt,value
2019-04-23T00:02:25.146Z,100.00
2019-04-23T00:04:52.834Z,100.00
2019-04-23T00:07:37.183Z,100.00
2019-04-23T00:10:03.517Z,100.00
2019-04-23T00:12:40.848Z,100.00
2019-04-23T00:17:37.146Z,100.00
2019-04-23T00:20:10.014Z,100.00
2019-04-23T00:25:50.975Z,100.00
2019-04-23T00:28:21.720Z,100.00
2019-04-23T00:30:49.733Z,100.00
2019-04-23T00:33:21.749Z,100.00
2019-04-23T00:36:03.242Z,100.00
2019-04-23T00:40:53.943Z,100.00
2019-04-23T00:43:23.225Z,100.00
2019-04-23T00:45:48.449Z,100.00
2019-04-23T00:51:06.250Z,100.00
2019-04-23T00:53:51.842Z,100.00
2019-04-23T00:55:55.741Z,100.00
2019-04-23T01:01:00.458Z,100.00
2019-04-23T01:03:25.492Z,100.00
2019-04-23T01:06:05.004Z,100.00
2019-04-23T01:08:29.649Z,100.00
2019-04-23T01:11:11.245Z,100.00
2019-04-23T01:13:43.126Z,100.00
2019-04-23T01:16:10.001Z,100.00
2019-04-23T01:18:54.486Z,100.00
2019-04-23T01:21:09.741Z,100.00
2019-04-23T01:23:57.834Z,100.00
2019-04-23T01:26:46.060Z,100.00
2019-04-23T01:29:20.220Z,100.00
2019-04-23T01:31:55.093Z,100.00
2019-04-23T01:34:26.072Z,100.00
2019-04-23T01:36:53.569Z,100.00
2019-04-23T01:39:23.142Z,100.00
2019-04-23T01:41:58.010Z,100.00
2019-04-23T01:44:32.811Z,100.00
2019-04-23T01:46:54.269Z,100.00
2019-04-23T01:49:56.507Z,100.00
2019-04-23T01:52:00.096Z,100.00
2019-04-23T01:54:30.361Z,100.00
2019-04-23T01:57:01.289Z,100.00
2019-04-23T01:59:34.782Z,100.00
2019-04-23T02:02:05.105Z,100.00
2019-04-23T02:04:34.934Z,100.00
2019-04-23T02:07:05.775Z,100.00
2019-04-23T02:09:41.992Z,100.00
2019-04-23T02:12:04.386Z,100.00
2019-04-23T02:14:37.872Z,100.00
2019-04-23T02:17:12.056Z,100.00
2019-04-23T02:22:31.687Z,100.00
2019-04-23T02:24:59.456Z,100.00
2019-04-23T02:27:31.191Z,100.00
2019-04-23T02:30:15.673Z,100.00
2019-04-23T02:32:42.522Z,100.00
2019-04-23T02:35:11.766Z,100.00
2019-04-23T02:42:54.616Z,100.00
2019-04-23T02:45:10.172Z,100.00
2019-04-23T02:47:46.653Z,100.00
2019-04-23T02:50:33.212Z,100.00
2019-04-23T02:52:38.879Z,100.00
2019-04-23T02:57:44.085Z,100.00
2019-04-23T03:02:48.233Z,100.00
2019-04-23T03:05:22.210Z,100.00
2019-04-23T03:07:47.361Z,100.00
2019-04-23T03:10:18.436Z,100.00
2019-04-23T03:13:12.415Z,100.00
2019-04-23T03:15:41.777Z,100.00
2019-04-23T03:23:42.259Z,100.00
2019-04-23T03:41:21.391Z,100.00
2019-04-23T03:46:23.598Z,100.00
2019-04-23T03:48:56.646Z,100.00
2019-04-23T03:59:11.899Z,100.00
2019-04-23T04:04:23.078Z,100.00
2019-04-23T04:06:33.769Z,100.00
2019-04-23T04:09:14.922Z,100.00
2019-04-23T04:14:18.219Z,100.00
2019-04-23T04:16:39.035Z,100.00
2019-04-23T04:19:06.568Z,100.00
2019-04-23T04:21:38.768Z,100.00
2019-04-23T04:24:10.304Z,100.00
2019-04-23T04:26:44.341Z,100.00
2019-04-23T04:29:10.794Z,100.00
2019-04-23T04:31:48.421Z,100.00
2019-04-23T04:34:21.809Z,100.00
2019-04-23T04:39:06.066Z,100.00
2019-04-23T04:41:52.456Z,100.00
2019-04-23T04:44:26.841Z,100.00
2019-04-23T04:46:45.905Z,100.00
2019-04-23T04:54:15.168Z,100.00
2019-04-23T04:56:58.171Z,100.00
2019-04-23T04:59:13.972Z,100.00
2019-04-23T05:07:02.622Z,100.00
2019-04-23T05:09:29.394Z,100.00
2019-04-23T05:14:35.312Z,100.00
2019-04-23T05:16:58.122Z,100.00
2019-04-23T05:19:35.424Z,100.00
2019-04-23T05:24:31.692Z,100.00
2019-04-23T05:26:58.519Z,100.00
2019-04-23T05:29:30.947Z,100.00
2019-04-23T05:31:58.102Z,100.00
2019-04-23T05:34:38.124Z,100.00
2019-04-23T05:37:00.149Z,100.00
2019-04-23T05:39:35.184Z,100.00
2019-04-23T05:42:05.731Z,100.00
2019-04-23T05:44:41.674Z,100.00
2019-04-23T05:47:17.021Z,100.00
2019-04-23T05:49:43.514Z,100.00
2019-04-23T05:52:16.114Z,100.00
2019-04-23T05:54:49.700Z,100.00
2019-04-23T05:57:14.353Z,100.00
2019-04-23T05:59:45.177Z,100.00
2019-04-23T06:02:13.239Z,100.00
2019-04-23T06:04:53.140Z,100.00
2019-04-23T06:07:28.957Z,100.00
2019-04-23T06:09:56.709Z,100.00
2019-04-23T06:12:21.359Z,100.00
2019-04-23T06:14:54.561Z,100.00
2019-04-23T06:17:25.105Z,100.00
2019-04-23T06:19:59.699Z,100.00
2019-04-23T06:22:28.894Z,100.00
2019-04-23T06:27:27.698Z,100.00
2019-04-23T06:29:59.319Z,100.00
2019-04-23T06:34:56.878Z,100.00
2019-04-23T06:40:03.187Z,100.00
2019-04-23T06:42:37.695Z,100.00
2019-04-23T06:45:04.768Z,100.00
2019-04-23T06:47:40.979Z,100.00
2019-04-23T06:50:03.530Z,100.00
2019-04-23T06:52:31.824Z,100.00
2019-04-23T06:55:09.139Z,100.00
2019-04-23T06:57:33.667Z,100.00
2019-04-23T07:00:17.212Z,100.00
2019-04-23T07:02:49.466Z,100.00
2019-04-23T07:05:20.595Z,100.00
2019-04-23T07:10:23.799Z,100.00
2019-04-23T07:12:50.478Z,100.00
2019-04-23T07:17:51.864Z,100.00
2019-04-23T07:20:20.843Z,100.00
2019-04-23T07:22:56.892Z,100.00
2019-04-23T07:25:25.259Z,100.00
2019-04-23T07:28:05.157Z,100.00
2019-04-23T07:30:31.438Z,100.00
2019-04-23T07:32:58.715Z,100.00
2019-04-23T07:35:24.697Z,100.00
2019-04-23T07:38:16.444Z,100.00
2019-04-23T07:40:50.108Z,100.00
2019-04-23T07:43:32.301Z,100.00
2019-04-23T07:46:19.884Z,100.00
2019-04-23T07:48:34.091Z,100.00
2019-04-23T07:51:16.180Z,100.00
2019-04-23T07:53:46.776Z,100.00
2019-04-23T07:56:19.378Z,100.00
2019-04-23T07:58:41.425Z,100.00
2019-04-23T08:01:14.310Z,100.00
2019-04-23T08:03:48.131Z,100.00
2019-04-23T08:06:17.947Z,100.00
2019-04-23T08:08:52.701Z,100.00
2019-04-23T08:11:39.770Z,100.00
2019-04-23T08:14:08.644Z,100.00
2019-04-23T08:18:55.746Z,100.00
2019-04-23T08:21:24.675Z,100.00
2019-04-23T08:24:21.165Z,100.00
2019-04-23T08:26:48.190Z,100.00
2019-04-23T08:29:26.826Z,100.00
2019-04-23T08:34:38.942Z,100.00
2019-04-23T08:39:34.002Z,97.39
2019-04-23T08:42:23.356Z,98.49
2019-04-23T08:45:00.882Z,95.87
2019-04-23T08:54:56.801Z,99.33
2019-04-23T08:57:22.691Z,94.69
2019-04-23T09:05:00.497Z,94.75
2019-04-23T09:10:09.717Z,96.00
2019-04-23T09:15:01.986Z,92.19
2019-04-23T09:17:34.304Z,88.50
2019-04-23T09:20:18.575Z,91.10
2019-04-23T09:22:34.424Z,90.60
2019-04-23T09:25:14.706Z,92.74
2019-04-23T09:30:09.382Z,97.69
2019-04-23T09:32:49.489Z,91.47
2019-04-23T09:35:35.927Z,92.96
2019-04-23T09:38:28.130Z,93.83
2019-04-23T09:41:22.355Z,89.91
2019-04-23T09:44:27.425Z,91.74
2019-04-23T09:47:03.304Z,88.41
2019-04-23T09:49:33.316Z,84.66
2019-04-23T09:52:01.006Z,84.49
2019-04-23T09:54:32.545Z,89.39
2019-04-23T09:56:57.046Z,84.98
2019-04-23T10:01:57.345Z,79.16
2019-04-23T10:04:19.572Z,80.81
2019-04-23T10:06:40.770Z,82.89
2019-04-23T10:09:12.239Z,83.03
2019-04-23T10:11:42.974Z,83.19
2019-04-23T10:14:12.541Z,85.70
2019-04-23T10:16:43.202Z,81.30
2019-04-23T10:19:12.658Z,79.77
2019-04-23T10:21:41.988Z,76.81
2019-04-23T10:24:12.988Z,82.72
2019-04-23T10:26:55.808Z,82.72
2019-04-23T10:29:29.810Z,78.08
2019-04-23T10:31:59.675Z,84.09
2019-04-23T10:34:30.474Z,82.17
2019-04-23T10:37:01.712Z,80.54
2019-04-23T10:39:37.185Z,84.41
2019-04-23T10:42:06.008Z,80.89
2019-04-23T10:45:08.102Z,82.65
2019-04-23T10:50:51.194Z,84.71
2019-04-23T10:56:07.486Z,85.44
2019-04-23T10:58:41.099Z,79.25
2019-04-23T11:01:16.725Z,85.49
2019-04-23T11:04:02.548Z,79.85
2019-04-23T11:08:41.254Z,82.60
2019-04-23T11:11:25.918Z,82.40
2019-04-23T11:13:56.662Z,84.55
2019-04-23T11:16:49.581Z,78.84
2019-04-23T11:18:56.666Z,76.76
2019-04-23T11:21:27.437Z,78.28
2019-04-23T11:24:00.082Z,73.70
2019-04-23T11:26:37.157Z,74.61
2019-04-23T11:29:02.095Z,74.35
2019-04-23T11:31:35.142Z,76.64
2019-04-23T11:36:57.246Z,80.38
2019-04-23T11:39:00.454Z,78.11
2019-04-23T11:44:16.721Z,77.58
2019-04-23T11:51:54.419Z,81.17
2019-04-23T11:54:12.364Z,78.90
2019-04-23T11:59:29.683Z,79.12
2019-04-23T12:02:16.992Z,76.28
2019-04-23T12:04:54.246Z,77.15
2019-04-23T12:07:34.725Z,76.62
2019-04-23T12:10:26.833Z,74.99
2019-04-23T12:15:19.536Z,71.67
2019-04-23T12:20:21.314Z,72.50
2019-04-23T12:22:58.755Z,73.19
2019-04-23T12:25:25.121Z,74.23
2019-04-23T13:09:34.685Z,66.47
2019-04-23T13:11:50.014Z,65.06
2019-04-23T13:14:26.561Z,63.80
2019-04-23T13:17:02.688Z,64.60
2019-04-23T13:19:33.331Z,63.73
2019-04-23T13:24:40.772Z,60.85
2019-04-23T13:27:19.932Z,60.30
2019-04-23T13:32:18.139Z,56.35
2019-04-23T13:34:58.529Z,56.86
2019-04-23T13:37:25.148Z,56.14
2019-04-23T13:39:43.882Z,56.11
2019-04-23T13:42:33.750Z,56.45
2019-04-23T13:47:48.598Z,53.70
2019-04-23T13:50:07.526Z,52.81
2019-04-23T13:52:59.717Z,53.49
2019-04-23T13:57:58.587Z,52.74
2019-04-23T14:00:07.042Z,52.20
2019-04-23T14:02:49.189Z,52.18
2019-04-23T14:05:26.851Z,52.00
2019-04-23T14:07:54.756Z,51.48
2019-04-23T14:10:29.771Z,49.65
2019-04-23T14:13:31.125Z,47.30
2019-04-23T14:15:42.909Z,49.20
2019-04-23T14:18:43.594Z,47.55
2019-04-23T14:20:32.301Z,48.00
2019-04-23T14:25:50.629Z,47.64
2019-04-23T14:28:28.020Z,46.66
2019-04-23T14:30:46.672Z,48.24
2019-04-23T14:33:19.020Z,47.33
2019-04-23T14:40:56.055Z,44.59
2019-04-23T14:46:33.534Z,43.37
2019-04-23T14:59:19.852Z,44.53
2019-04-23T15:01:51.269Z,43.31
2019-04-23T15:04:19.272Z,43.61
2019-04-23T15:09:27.315Z,43.35
2019-04-23T15:12:12.280Z,41.98
2019-04-23T15:14:33.952Z,40.16
2019-04-23T15:17:07.614Z,39.12
2019-04-23T15:22:41.543Z,39.31
2019-04-23T15:25:18.136Z,41.22
2019-04-23T15:26:58.871Z,40.03
2019-04-23T15:28:05.359Z,39.84
2019-04-23T15:30:14.392Z,39.99
2019-04-23T15:33:04.456Z,39.34
2019-04-23T15:35:31.348Z,41.39
2019-04-23T15:38:20.405Z,41.83
2019-04-23T15:43:02.729Z,42.55
2019-04-23T15:53:03.166Z,47.75
2019-04-23T15:56:15.997Z,48.66
2019-04-23T16:01:21.520Z,52.06
2019-04-23T16:03:20.610Z,53.90
2019-04-23T16:05:50.957Z,56.43
2019-04-23T16:09:00.937Z,54.87
2019-04-23T16:16:37.411Z,55.60
2019-04-23T16:22:03.687Z,59.52
2019-04-23T16:24:55.494Z,59.94
2019-04-23T16:27:07.938Z,60.81
2019-04-23T16:30:00.194Z,62.49
2019-04-23T16:32:14.602Z,61.36
2019-04-23T16:34:56.659Z,61.55
2019-04-23T16:37:20.156Z,63.18
2019-04-23T16:40:01.850Z,64.24
2019-04-23T16:42:29.959Z,66.56
2019-04-23T16:45:12.401Z,67.77
2019-04-23T16:47:38.801Z,70.59
2019-04-23T16:50:12.997Z,72.85
2019-04-23T16:52:51.542Z,76.11
2019-04-23T16:55:24.236Z,77.83
2019-04-23T16:57:45.880Z,78.33
2019-04-23T17:00:24.498Z,78.25
2019-04-23T17:02:47.586Z,78.32
2019-04-23T17:05:17.959Z,78.14
2019-04-23T17:07:55.464Z,79.27
2019-04-23T17:10:23.378Z,80.47
2019-04-23T17:12:56.012Z,83.08
2019-04-23T17:15:28.116Z,83.62
2019-04-23T17:17:54.962Z,88.61
2019-04-23T17:22:56.672Z,94.85
2019-04-23T17:25:26.415Z,99.69
2019-04-23T17:28:05.613Z,100.00
2019-04-23T17:30:32.493Z,100.00
2019-04-23T17:33:19.126Z,100.00
2019-04-23T17:36:22.398Z,100.00
2019-04-23T17:38:42.547Z,100.00
2019-04-23T17:41:27.601Z,100.00
2019-04-23T17:44:07.657Z,100.00
2019-04-23T17:46:21.836Z,100.00
2019-04-23T17:48:57.284Z,100.00
2019-04-23T17:51:26.614Z,100.00
2019-04-23T17:54:06.586Z,100.00
2019-04-23T17:56:35.853Z,100.00
2019-04-23T17:59:04.269Z,100.00
2019-04-23T18:01:45.232Z,100.00
2019-04-23T18:06:42.942Z,100.00
2019-04-23T18:09:14.352Z,100.00
2019-04-23T18:11:40.253Z,100.00
2019-04-23T18:14:08.375Z,100.00
2019-04-23T18:16:51.867Z,100.00
2019-04-23T18:22:07.318Z,100.00
2019-04-23T18:24:59.397Z,100.00
2019-04-23T18:27:23.611Z,100.00
2019-04-23T18:30:10.633Z,100.00
2019-04-23T18:32:58.527Z,100.00
2019-04-23T18:35:28.242Z,100.00
2019-04-23T18:37:45.944Z,100.00
2019-04-23T18:40:14.531Z,100.00
2019-04-23T18:42:58.098Z,100.00
2019-04-23T18:45:24.449Z,100.00
2019-04-23T18:47:49.199Z,100.00
2019-04-23T18:50:32.751Z,100.00
2019-04-23T18:53:06.115Z,100.00
2019-04-23T19:04:21.593Z,100.00
2019-04-23T19:06:41.162Z,100.00
2019-04-23T19:10:03.853Z,100.00
2019-04-23T19:12:31.403Z,100.00
2019-04-23T19:14:56.241Z,100.00
2019-04-23T19:19:55.346Z,100.00
2019-04-23T19:25:01.547Z,100.00
2019-04-23T19:27:34.192Z,100.00
2019-04-23T19:30:14.015Z,100.00
2019-04-23T19:32:50.757Z,100.00
2019-04-23T19:35:33.607Z,100.00
2019-04-23T19:38:08.297Z,100.00
2019-04-23T19:40:18.714Z,100.00
2019-04-23T19:42:55.414Z,100.00
2019-04-23T19:45:28.553Z,100.00
2019-04-23T19:47:58.561Z,100.00
2019-04-23T19:50:35.780Z,100.00
2019-04-23T19:55:35.321Z,100.00
2019-04-23T19:58:08.521Z,100.00
2019-04-23T20:00:45.236Z,100.00
2019-04-23T20:03:22.610Z,100.00
2019-04-23T20:05:41.267Z,100.00
2019-04-23T20:10:41.117Z,100.00
2019-04-23T20:13:05.126Z,100.00
2019-04-23T20:15:57.919Z,100.00
2019-04-23T20:18:07.263Z,100.00
2019-04-23T20:23:24.797Z,100.00
2019-04-23T20:28:41.096Z,100.00
2019-04-23T20:36:41.777Z,100.00
2019-04-23T20:47:06.734Z,100.00
2019-04-23T20:49:42.343Z,100.00
2019-04-23T20:52:06.557Z,100.00
2019-04-23T20:54:42.303Z,100.00
2019-04-23T20:57:42.841Z,100.00
2019-04-23T21:00:01.499Z,100.00
2019-04-23T21:03:25.649Z,100.00
2019-04-23T21:05:27.596Z,100.00
2019-04-23T21:08:00.876Z,100.00
2019-04-23T21:13:09.271Z,100.00
2019-04-23T21:15:37.568Z,100.00
2019-04-23T21:20:36.577Z,100.00
2019-04-23T21:23:08.867Z,100.00
2019-04-23T21:28:14.222Z,100.00
2019-04-23T21:44:20.660Z,100.00
2019-04-23T21:46:56.625Z,100.00
2019-04-23T21:49:38.971Z,100.00
2019-04-23T21:54:29.415Z,100.00
2019-04-23T21:57:02.696Z,100.00
2019-04-23T21:59:31.253Z,100.00
2019-04-23T22:02:03.980Z,100.00
2019-04-23T22:04:39.917Z,100.00
2019-04-23T22:07:10.069Z,100.00
2019-04-23T22:09:46.660Z,100.00
2019-04-23T22:12:15.063Z,100.00
2019-04-23T22:19:52.742Z,100.00
2019-04-23T22:22:13.292Z,100.00
2019-04-23T22:24:48.304Z,100.00
2019-04-23T22:27:17.645Z,100.00
2019-04-23T22:32:23.340Z,100.00
2019-04-23T22:34:55.899Z,100.00
2019-04-23T22:37:24.153Z,100.00
2019-04-23T22:40:00.614Z,100.00
2019-04-23T22:42:49.911Z,100.00
2019-04-23T22:45:07.151Z,100.00
2019-04-23T22:47:37.052Z,100.00
2019-04-23T22:50:08.494Z,100.00
2019-04-23T22:52:36.844Z,100.00
2019-04-23T22:57:57.136Z,100.00
2019-04-23T23:00:14.276Z,100.00
2019-04-23T23:03:06.653Z,100.00
2019-04-23T23:05:53.522Z,100.00
2019-04-23T23:08:11.452Z,100.00
2019-04-23T23:10:44.186Z,100.00
2019-04-23T23:13:13.751Z,100.00
2019-04-23T23:15:49.167Z,100.00
2019-04-23T23:18:14.358Z,100.00
2019-04-23T23:20:47.917Z,100.00
2019-04-23T23:25:49.148Z,100.00
2019-04-23T23:28:22.362Z,100.00
2019-04-23T23:30:58.272Z,100.00
2019-04-23T23:33:20.297Z,100.00
2019-04-23T23:35:54.156Z,100.00
2019-04-23T23:38:25.783Z,100.00
2019-04-23T23:41:00.045Z,100.00
2019-04-23T23:43:24.255Z,100.00
2019-04-23T23:46:06.027Z,100.00
2019-04-23T23:48:29.773Z,100.00
2019-04-23T23:51:00.767Z,100.00
2019-04-23T23:56:03.174Z,100.00
2019-04-23T23:58:41.095Z,100.00
